Time;durP1;ratioP1;P1;durP2;ratioP2;P2;SDS_P1;SDS_P2;PMS_P1;PMS_P2;Temp;Humidity;BMP_temperature;BMP_pressure;BME280_temperature;BME280_humidity;BME280_pressure;Samples;Min_cycle;Max_cycle;Signal;HPM_P1;HPM_P2
2023/03/20 09:18:36;;;;;;;;;;;;;;;;;;5266120;23;20013;-82
2023/03/20 09:46:55;;;;;;;;;;;;;;;;;;4898939;29;20292;-83
2023/03/20 09:49:32;;;;;;;;;;;;;;;;;;4900264;29;19916;-82
2023/03/20 09:51:58;;;;;;;;;;;;;;;;;;4901560;29;20005;-83
2023/03/20 09:54:28;;;;;;;;;;;;;;;;;;4899902;29;19921;-82
2023/03/20 09:56:55;;;;;;;;;;;;;;;;;;4901606;29;19915;-82
2023/03/20 09:59:21;;;;;;;;;;;;;;;;;;4901351;29;19919;-82
2023/03/20 10:01:51;;;;;;;;;;;;;;;;;;4901408;29;19915;-82
2023/03/20 10:04:17;;;;;;;;;;;;;;;;;;4901229;29;19919;-79
2023/03/20 10:06:43;;;;;;;;;;;;;;;;;;4901259;29;19916;-81
2023/03/20 10:09:14;;;;;;;;;;;;;;;;;;4900911;29;20006;-81
2023/03/20 10:12:05;;;;;;;;;;;;;;;;;;4900404;29;19911;-82
2023/03/20 10:14:33;;;;;;;;;;;;;;;;;;4901019;29;20366;-82
2023/03/20 10:17:11;;;;;;;;;;;;;;;;;;4901023;29;19947;-81
2023/03/20 10:19:50;;;;;;;;;;;;;;;;;;4901195;29;19915;-82
2023/03/20 10:22:25;;;;;;;;;;;;;;;;;;4899449;29;19911;-81
2023/03/20 10:24:50;;;;;;;;;;;;;;;;;;4900739;29;19919;-81
2023/03/20 10:27:20;;;;;;;;;;;;;;;;;;4900718;29;20263;-81
2023/03/20 10:30:05;;;;;;;;;;;;;;;;;;4900789;29;19915;-81
2023/03/20 10:32:59;;;;;;;;;;;;;;;;;;4900595;29;19916;-81
2023/03/20 10:35:33;;;;;;;;;;;;;;;;;;4892043;29;19916;-82
2023/03/20 10:38:05;;;;;;;;;;;;;;;;;;4901003;29;20434;-83
2023/03/20 10:40:31;;;;;;;;;;;;;;;;;;4900802;29;19919;-81
2023/03/20 10:43:01;;;;;;;;;;;;;;;;;;4899404;29;19978;-81
2023/03/20 10:45:27;;;;;;;;;;;;;;;;;;4904761;29;19919;-81
2023/03/20 10:47:53;;;;;;;;;;;;;;;;;;4919416;29;19919;-81
2023/03/20 10:50:20;;;;;;;;;;;;;;;;;;4919173;29;20037;-81
2023/03/20 10:52:47;;;;;;;;;;;;;;;;;;4919228;29;20375;-81
2023/03/20 10:55:18;;;;;;;;;;;;;;;;;;4919398;29;19946;-80
2023/03/20 10:57:47;;;;;;;;;;;;;;;;;;4919133;29;19915;-79
2023/03/20 11:00:18;;;;;;;;;;;;;;;;;;4902105;29;20291;-83
2023/03/20 11:02:44;;;;;;;;;;;;;;;;;;4919272;29;20422;-83
2023/03/20 11:05:22;;;;;;;;;;;;;;;;;;4921465;29;20367;-83
2023/03/20 11:08:00;;;;;;;;;;;;;;;;;;4901958;29;19919;-83
2023/03/20 11:10:26;;;;;;;;;;;;;;;;;;4918931;29;20001;-83
2023/03/20 11:12:52;;;;;;;;;;;;;;;;;;4918838;29;19919;-83
2023/03/20 11:15:22;;;;;;;;;;;;;;;;;;4918772;29;19922;-82
2023/03/20 11:17:51;;;;;;;;;;;;;;;;;;4919142;29;19915;-82
2023/03/20 11:20:17;;;;;;;;;;;;;;;;;;4918878;29;19950;-82
2023/03/20 11:22:42;;;;;;;;;;;;;;;;;;4901571;29;19957;-82
2023/03/20 11:25:21;;;;;;;;;;;;;;;;;;4918552;29;19915;-84
2023/03/20 11:27:46;;;;;;;;;;;;;;;;;;4918659;29;19943;-84
2023/03/20 11:30:16;;;;;;;;;;;;;;;;;;4918731;29;19915;-83
2023/03/20 11:32:45;;;;;;;;;;;;;;;;;;4918464;29;19915;-83
2023/03/20 11:35:18;;;;;;;;;;;;;;;;;;4918728;29;19926;-83
2023/03/20 11:37:45;;;;;;;;;;;;;;;;;;4918535;29;19915;-83
2023/03/20 11:40:10;;;;;;;;;;;;;;;;;;4918262;29;19974;-83
2023/03/20 11:42:36;;;;;;;;;;;;;;;;;;4918342;29;19915;-83
2023/03/20 11:45:03;;;;;;;;;;;;;;;;;;4918479;29;19918;-83
2023/03/20 11:47:31;;;;;;;;;;;;;;;;;;4918281;29;19915;-83
2023/03/20 11:49:58;;;;;;;;;;;;;;;;;;4902276;29;19915;-83
2023/03/20 11:52:44;;;;;;;;;;;;;;;;;;4921030;29;19938;-83
2023/03/20 11:55:27;;;;;;;;;;;;;;;;;;4886396;29;19998;-82
2023/03/20 11:58:02;;;;;;;;;;;;;;;;;;4887296;29;19989;-82
2023/03/20 12:03:58;;;;;;;;;;;;;;;;;;;;;
2023/03/20 12:06:24;;;;;;;;;;;;;;;;;;4869438;29;19915;-82
2023/03/20 12:09:09;;;;;;;;;;;;;;;;;;4884525;29;20286;-82
2023/03/20 12:11:50;;;;;;;;;;;;;;;;;;4878776;29;20019;-82
2023/03/20 12:14:19;;;;;;;;;;;;;;;;;;4878840;29;19916;-82
2023/03/20 12:16:45;;;;;;;;;;;;;;;;;;4879643;29;20039;-83
2023/03/20 12:19:35;;;;;;;;;;;;;;;;;;4864278;29;19927;-83
2023/03/20 12:22:21;;;;;;;;;;;;;;;;;;4880732;29;19919;-82
2023/03/20 12:24:54;;;;;;;;;;;;;;;;;;4882178;29;19916;-83
2023/03/20 12:27:40;;;;;;;;;;;;;;;;;;4881883;29;19919;-82
2023/03/20 12:30:17;;;;;;;;;;;;;;;;;;4882743;29;19920;-83
2023/03/20 12:33:18;;;;;;;;;;;;;;;;;;4888187;29;19914;-82
2023/03/20 12:35:50;;;;;;;;;;;;;;;;;;4907780;29;19994;-82
2023/03/20 12:38:21;;;;;;;;;;;;;;;;;;4909733;29;19948;-83
2023/03/20 12:40:49;;;;;;;;;;;;;;;;;;4923983;29;19915;-83
2023/03/20 12:43:20;;;;;;;;;;;;;;;;;;4907299;29;19919;-82
2023/03/20 12:45:57;;;;;;;;;;;;;;;;;;4923867;29;19919;-81
2023/03/20 17:58:33;;;;;;;;;;;;;;;;;;4911153;29;20018;-83
2023/03/20 18:00:58;;;;;;;;;;;;;;;;;;4901719;29;19966;-88
2023/03/20 18:03:23;;;;;;;;;;;;;;;;;;4901325;29;20029;-87
2023/03/20 18:05:50;;;;;;;;;;;;;;;;;;4901151;29;19980;-88
2023/03/20 18:08:18;;;;;;;;;;;;;;;;;;4901068;29;19923;-85
2023/03/20 18:10:44;;;;;;;;;;;;;;;;;;4901316;29;20418;-86
2023/03/20 18:13:09;;;;;;;;;;;;;;;;;;4901750;29;19950;-88
2023/03/20 18:15:37;;;;;;;;;;;;;;;;;;4901371;29;20306;-89
2023/03/20 18:18:02;;;;;;;;;;;;;;;;;;4901203;29;20386;-88
2023/03/20 18:20:30;;;;;;;;;;;;;;;;;;4900088;29;19943;-87
2023/03/20 18:22:55;;;;;;;;;;;;;;;;;;4899947;29;19919;-86
2023/03/20 18:25:21;;;;;;;;;;;;;;;;;;4899729;29;19922;-85
2023/03/20 18:27:47;;;;;;;;;;;;;;;;;;4900831;29;19922;-86
2023/03/20 18:30:17;;;;;;;;;;;;;;;;;;4900043;29;20390;-86
2023/03/20 18:32:43;;;;;;;;;;;;;;;;;;4899323;29;20013;-86
2023/03/20 18:35:08;;;;;;;;;;;;;;;;;;4900818;29;20375;-86
2023/03/20 18:37:34;;;;;;;;;;;;;;;;;;4899716;29;19962;-86
2023/03/20 18:39:59;;;;;;;;;;;;;;;;;;4900818;29;19926;-86
2023/03/20 18:42:25;;;;;;;;;;;;;;;;;;4900730;29;19926;-86
2023/03/20 18:44:50;;;;;;;;;;;;;;;;;;4900786;29;19916;-84
2023/03/20 18:47:16;;;;;;;;;;;;;;;;;;4900851;29;19915;-85
2023/03/20 18:49:41;;;;;;;;;;;;;;;;;;4900821;29;20345;-85
2023/03/20 18:52:06;;;;;;;;;;;;;;;;;;4900102;29;19934;-92
2023/03/20 18:54:32;;;;;;;;;;;;;;;;;;4899411;29;20010;-84
2023/03/20 18:56:59;;;;;;;;;;;;;;;;;;4900331;29;19911;-85
2023/03/20 18:59:24;;;;;;;;;;;;;;;;;;4899608;29;20426;-84
2023/03/20 19:01:51;;;;;;;;;;;;;;;;;;4900676;29;19916;-84
2023/03/20 19:04:17;;;;;;;;;;;;;;;;;;4900353;29;19917;-85
2023/03/20 19:06:42;;;;;;;;;;;;;;;;;;4900175;29;19919;-85
2023/03/20 19:09:10;;;;;;;;;;;;;;;;;;4900178;29;20425;-86
2023/03/20 19:11:36;;;;;;;;;;;;;;;;;;4900020;29;19916;-86
2023/03/20 19:14:01;;;;;;;;;;;;;;;;;;4900254;29;19916;-88
2023/03/20 19:16:29;;;;;;;;;;;;;;;;;;4898901;29;19915;-88
2023/03/20 19:18:57;;;;;;;;;;;;;;;;;;4900708;29;20358;-86
2023/03/20 19:21:25;;;;;;;;;;;;;;;;;;4899145;29;19922;-86
2023/03/20 19:23:51;;;;;;;;;;;;;;;;;;4900014;29;20294;-85
2023/03/20 19:26:18;;;;;;;;;;;;;;;;;;4899812;29;19970;-85
2023/03/20 19:28:44;;;;;;;;;;;;;;;;;;4899765;29;20405;-85
2023/03/20 19:31:09;;;;;;;;;;;;;;;;;;4900000;29;20000;-85
2023/03/20 19:33:35;;;;;;;;;;;;;;;;;;4899946;29;19920;-84
2023/03/20 19:36:00;;;;;;;;;;;;;;;;;;4899802;29;19915;-84
2023/03/20 19:38:26;;;;;;;;;;;;;;;;;;4901548;29;19963;-84
2023/03/20 19:40:51;;;;;;;;;;;;;;;;;;4899644;29;19926;-85
2023/03/20 19:43:17;;;;;;;;;;;;;;;;;;4898776;29;19915;-85
2023/03/20 19:45:43;;;;;;;;;;;;;;;;;;4898081;29;19951;-85
2023/03/20 19:48:11;;;;;;;;;;;;;;;;;;4899378;29;19951;-85
2023/03/20 19:50:37;;;;;;;;;;;;;;;;;;4899664;29;19923;-85
2023/03/20 19:53:03;;;;;;;;;;;;;;;;;;4899437;29;19915;-85
2023/03/20 19:55:29;;;;;;;;;;;;;;;;;;4899245;29;20388;-85
2023/03/20 19:57:56;;;;;;;;;;;;;;;;;;4899518;29;20002;-85
2023/03/20 20:00:22;;;;;;;;;;;;;;;;;;4918213;29;19915;-85
2023/03/20 20:02:48;;;;;;;;;;;;;;;;;;4918113;29;19919;-85
2023/03/20 20:05:27;;;;;;;;;;;;;;;;;;4918004;29;19915;-85
2023/03/20 20:07:53;;;;;;;;;;;;;;;;;;4918242;29;19921;-85
2023/03/20 20:10:20;;;;;;;;;;;;;;;;;;4918221;29;20014;-85
2023/03/20 20:12:46;;;;;;;;;;;;;;;;;;4920084;29;19926;-84
2023/03/20 20:15:12;;;;;;;;;;;;;;;;;;4918625;29;19946;-85
2023/03/20 20:17:38;;;;;;;;;;;;;;;;;;4918119;29;20005;-85
2023/03/20 20:20:03;;;;;;;;;;;;;;;;;;4901056;29;19950;-85
2023/03/20 20:22:29;;;;;;;;;;;;;;;;;;4917780;29;20381;-85
2023/03/20 20:24:54;;;;;;;;;;;;;;;;;;4918049;29;19926;-85
2023/03/20 20:27:19;;;;;;;;;;;;;;;;;;4917860;29;19915;-86
2023/03/20 20:29:49;;;;;;;;;;;;;;;;;;4917722;29;20013;-85
2023/03/20 20:32:15;;;;;;;;;;;;;;;;;;4917754;29;19937;-86
2023/03/20 20:34:42;;;;;;;;;;;;;;;;;;4917764;29;19915;-86
2023/03/20 20:37:09;;;;;;;;;;;;;;;;;;4917756;29;20275;-86
2023/03/20 20:39:34;;;;;;;;;;;;;;;;;;4900754;29;20294;-86
2023/03/20 20:41:59;;;;;;;;;;;;;;;;;;4917813;29;19915;-86
2023/03/20 20:44:28;;;;;;;;;;;;;;;;;;4917209;29;19919;-85
2023/03/20 20:46:54;;;;;;;;;;;;;;;;;;4917812;29;19915;-86
2023/03/20 20:49:19;;;;;;;;;;;;;;;;;;4917808;29;19922;-85
2023/03/20 20:51:44;;;;;;;;;;;;;;;;;;4918936;29;19966;-85
2023/03/20 20:54:10;;;;;;;;;;;;;;;;;;4919058;29;19915;-85
2023/03/20 20:56:35;;;;;;;;;;;;;;;;;;4921516;29;19951;-85
2023/03/20 20:59:00;;;;;;;;;;;;;;;;;;4921191;29;20362;-85
2023/03/20 21:01:26;;;;;;;;;;;;;;;;;;4904526;29;19922;-87
2023/03/20 21:03:51;;;;;;;;;;;;;;;;;;4904443;29;20355;-85
2023/03/20 21:06:17;;;;;;;;;;;;;;;;;;4921333;29;20358;-85
2023/03/20 21:08:42;;;;;;;;;;;;;;;;;;4921126;29;19915;-85
2023/03/20 21:11:11;;;;;;;;;;;;;;;;;;4919694;29;19911;-86
2023/03/20 21:13:36;;;;;;;;;;;;;;;;;;4901841;29;20011;-85
2023/03/20 21:16:02;;;;;;;;;;;;;;;;;;4901277;29;20391;-86
2023/03/20 21:18:28;;;;;;;;;;;;;;;;;;4939879;29;19911;-85
2023/03/20 21:20:53;;;;;;;;;;;;;;;;;;4917008;29;19916;-86
2023/03/20 21:23:19;;;;;;;;;;;;;;;;;;4901712;29;19932;-85
2023/03/20 21:25:44;;;;;;;;;;;;;;;;;;4901590;29;19920;-86
2023/03/20 21:28:10;;;;;;;;;;;;;;;;;;4901479;29;19920;-85
2023/03/20 21:30:37;;;;;;;;;;;;;;;;;;4901760;29;19920;-85
2023/03/20 21:33:04;;;;;;;;;;;;;;;;;;4901657;29;20385;-86
2023/03/20 21:35:30;;;;;;;;;;;;;;;;;;4890038;29;19915;-86
2023/03/20 21:37:55;;;;;;;;;;;;;;;;;;4892459;29;20374;-86
2023/03/20 21:40:21;;;;;;;;;;;;;;;;;;4901606;29;19923;-86
2023/03/20 21:42:47;;;;;;;;;;;;;;;;;;4901654;29;19920;-87
2023/03/20 21:45:12;;;;;;;;;;;;;;;;;;4884355;29;19915;-85
2023/03/20 21:47:37;;;;;;;;;;;;;;;;;;4901424;29;19919;-86
2023/03/20 21:50:03;;;;;;;;;;;;;;;;;;4884566;29;19962;-85
2023/03/20 21:52:29;;;;;;;;;;;;;;;;;;4923109;29;20289;-84
2023/03/20 21:54:55;;;;;;;;;;;;;;;;;;4921789;29;20025;-86
2023/03/20 21:57:20;;;;;;;;;;;;;;;;;;4939273;29;19993;-87
2023/03/20 21:59:46;;;;;;;;;;;;;;;;;;4938804;29;19922;-88
2023/03/20 22:02:15;;;;;;;;;;;;;;;;;;4939174;29;20337;-86
2023/03/20 22:04:41;;;;;;;;;;;;;;;;;;4938889;29;19922;-86
2023/03/20 22:07:07;;;;;;;;;;;;;;;;;;4937899;29;20353;-86
2023/03/20 22:09:32;;;;;;;;;;;;;;;;;;4921820;29;20272;-87
2023/03/20 22:12:07;;;;;;;;;;;;;;;;;;4937257;29;19915;-86
2023/03/20 22:14:32;;;;;;;;;;;;;;;;;;4911038;29;19918;-87
2023/03/20 22:16:57;;;;;;;;;;;;;;;;;;4921691;29;20009;-85
2023/03/20 22:19:23;;;;;;;;;;;;;;;;;;4935797;29;19919;-86
2023/03/20 22:21:48;;;;;;;;;;;;;;;;;;4901083;29;19915;-85
2023/03/20 22:24:13;;;;;;;;;;;;;;;;;;4902109;29;19915;-85
2023/03/20 22:26:39;;;;;;;;;;;;;;;;;;4900758;29;19919;-86
2023/03/20 22:29:04;;;;;;;;;;;;;;;;;;4901186;29;19920;-86
2023/03/20 22:31:29;;;;;;;;;;;;;;;;;;4900860;29;19911;-86
2023/03/20 22:33:55;;;;;;;;;;;;;;;;;;4883870;29;19954;-85
2023/03/20 22:36:20;;;;;;;;;;;;;;;;;;4900605;29;20362;-85
2023/03/20 22:38:45;;;;;;;;;;;;;;;;;;4883734;29;19911;-85
2023/03/20 22:41:12;;;;;;;;;;;;;;;;;;4900513;29;20287;-85
2023/03/20 22:43:38;;;;;;;;;;;;;;;;;;4900382;29;19919;-85
2023/03/20 22:46:03;;;;;;;;;;;;;;;;;;4883523;29;19915;-85
2023/03/20 22:48:29;;;;;;;;;;;;;;;;;;4900253;29;19919;-85
2023/03/20 22:50:54;;;;;;;;;;;;;;;;;;4883889;29;19981;-85
2023/03/20 22:53:19;;;;;;;;;;;;;;;;;;4883224;29;20285;-85
2023/03/20 22:55:45;;;;;;;;;;;;;;;;;;4899904;29;19920;-85
2023/03/20 22:58:14;;;;;;;;;;;;;;;;;;4883171;29;19955;-85
2023/03/20 23:00:40;;;;;;;;;;;;;;;;;;4899980;29;20089;-85
2023/03/20 23:03:06;;;;;;;;;;;;;;;;;;4900238;29;19943;-85
2023/03/20 23:05:31;;;;;;;;;;;;;;;;;;4899788;29;19916;-85
2023/03/20 23:07:57;;;;;;;;;;;;;;;;;;4900157;29;19915;-87
2023/03/20 23:10:22;;;;;;;;;;;;;;;;;;4899864;29;19915;-85
2023/03/20 23:12:47;;;;;;;;;;;;;;;;;;4900029;29;19915;-86
